Time;durP1;ratioP1;P1;durP2;ratioP2;P2;SDS_P1;SDS_P2;PMS_P1;PMS_P2;Temp;Humidity;BMP_temperature;BMP_pressure;BME280_temperature;BME280_humidity;BME280_pressure;Samples;Min_cycle;Max_cycle;Signal;HPM_P1;HPM_P2
2023/05/05 00:02:07;;;;;;;13.05;7.95;;;;;;;;;;5052052;28;20029;-76
2023/05/05 00:04:33;;;;;;;14.10;6.85;;;;;;;;;;5043405;28;20292;-77
2023/05/05 00:06:59;;;;;;;13.05;6.97;;;;;;;;;;5047979;28;20036;-77
2023/05/05 00:09:25;;;;;;;10.05;6.15;;;;;;;;;;5047181;28;20043;-78
2023/05/05 00:11:52;;;;;;;10.88;6.07;;;;;;;;;;5038713;28;20025;-77
2023/05/05 00:14:19;;;;;;;9.77;6.00;;;;;;;;;;5046169;28;20056;-77
2023/05/05 00:16:46;;;;;;;11.10;5.57;;;;;;;;;;5051449;28;20032;-76
2023/05/05 00:19:18;;;;;;;13.07;6.78;;;;;;;;;;5045924;28;20001;-76
2023/05/05 00:21:44;;;;;;;9.35;5.40;;;;;;;;;;5051793;28;20078;-77
2023/05/05 00:24:11;;;;;;;10.10;5.97;;;;;;;;;;5045533;28;20029;-77
2023/05/05 00:26:37;;;;;;;7.68;5.53;;;;;;;;;;5044345;28;20418;-77
2023/05/05 00:29:10;;;;;;;10.02;5.03;;;;;;;;;;5042651;28;20028;-77
2023/05/05 00:31:36;;;;;;;12.68;6.03;;;;;;;;;;5044503;28;20029;-77
2023/05/05 00:34:08;;;;;;;10.77;6.10;;;;;;;;;;5048012;28;20743;-77
2023/05/05 00:36:35;;;;;;;10.18;6.20;;;;;;;;;;5052562;28;20132;-77
2023/05/05 00:39:02;;;;;;;9.02;6.20;;;;;;;;;;5054056;28;20032;-77
2023/05/05 00:41:28;;;;;;;8.45;5.93;;;;;;;;;;5044690;28;20096;-77
2023/05/05 00:43:54;;;;;;;13.32;5.70;;;;;;;;;;5044940;28;20025;-77
2023/05/05 00:46:27;;;;;;;13.38;6.75;;;;;;;;;;5043714;28;20029;-78
2023/05/05 00:48:54;;;;;;;10.85;5.18;;;;;;;;;;5045207;28;20341;-77
2023/05/05 00:51:20;;;;;;;8.85;5.68;;;;;;;;;;5048428;28;20055;-77
2023/05/05 00:53:47;;;;;;;9.50;6.18;;;;;;;;;;5052045;28;20021;-77
2023/05/05 00:56:17;;;;;;;7.32;5.28;;;;;;;;;;5044929;28;20048;-77
2023/05/05 00:58:43;;;;;;;10.02;5.82;;;;;;;;;;5034008;28;20066;-77
2023/05/05 01:01:11;;;;;;;10.60;5.50;;;;;;;;;;5051504;28;20036;-76
2023/05/05 01:03:38;;;;;;;13.27;6.20;;;;;;;;;;5048466;28;20048;-76
2023/05/05 01:06:23;;;;;;;10.45;6.00;;;;;;;;;;5035561;28;20095;-76
2023/05/05 01:09:03;;;;;;;8.63;5.55;;;;;;;;;;5046297;28;20498;-76
2023/05/05 01:11:48;;;;;;;7.30;5.72;;;;;;;;;;5032945;28;20394;-77
2023/05/05 01:14:19;;;;;;;6.35;5.35;;;;;;;;;;5047316;28;20059;-77
2023/05/05 01:16:56;;;;;;;7.57;5.38;;;;;;;;;;5032204;28;20048;-77
2023/05/05 01:19:41;;;;;;;9.10;5.78;;;;;;;;;;5038964;28;20040;-78
2023/05/05 01:22:08;;;;;;;8.75;5.03;;;;;;;;;;5041764;28;20502;-78
2023/05/05 01:24:45;;;;;;;9.73;5.03;;;;;;;;;;5049646;28;20013;-77
2023/05/05 01:27:32;;;;;;;6.15;4.38;;;;;;;;;;5045652;28;20503;-76
2023/05/05 01:29:59;;;;;;;5.45;3.30;;;;;;;;;;5042352;28;20021;-76
2023/05/05 01:32:26;;;;;;;5.95;2.85;;;;;;;;;;5045738;28;20021;-76
2023/05/05 01:34:55;;;;;;;3.38;2.63;;;;;;;;;;5044945;28;20029;-77
2023/05/05 01:37:24;;;;;;;3.30;2.97;;;;;;;;;;5040887;28;20549;-77
2023/05/05 01:39:54;;;;;;;4.32;3.33;;;;;;;;;;5049023;28;20041;-77
2023/05/05 01:42:22;;;;;;;3.67;3.28;;;;;;;;;;5026051;28;20025;-77
2023/05/05 01:44:49;;;;;;;3.60;3.30;;;;;;;;;;5026524;28;20477;-77
2023/05/05 01:47:16;;;;;;;4.50;3.70;;;;;;;;;;5044440;28;20147;-78
2023/05/05 01:49:43;;;;;;;4.07;3.20;;;;;;;;;;5039615;28;20036;-78
2023/05/05 01:52:15;;;;;;;4.93;3.97;;;;;;;;;;5046111;28;20506;-76
2023/05/05 01:54:42;;;;;;;4.13;3.70;;;;;;;;;;5043640;28;20479;-78
2023/05/05 01:57:10;;;;;;;4.35;3.38;;;;;;;;;;5039308;28;20110;-76
2023/05/05 01:59:36;;;;;;;4.07;3.67;;;;;;;;;;5042156;28;20044;-77
2023/05/05 02:02:03;;;;;;;5.15;4.43;;;;;;;;;;5019251;28;20017;-76
2023/05/05 02:04:31;;;;;;;4.40;3.63;;;;;;;;;;5043544;28;20172;-77
2023/05/05 02:06:59;;;;;;;4.93;4.15;;;;;;;;;;5037734;28;20037;-76
2023/05/05 02:09:26;;;;;;;4.85;4.20;;;;;;;;;;5047463;28;20017;-77
2023/05/05 02:11:53;;;;;;;4.25;3.75;;;;;;;;;;5047999;28;20031;-77
2023/05/05 02:14:19;;;;;;;4.60;3.90;;;;;;;;;;5027576;28;20032;-78
2023/05/05 02:16:46;;;;;;;5.75;4.68;;;;;;;;;;5037132;28;20029;-76
2023/05/05 02:19:13;;;;;;;4.38;3.97;;;;;;;;;;5049350;28;20029;-76
2023/05/05 02:21:40;;;;;;;4.43;4.00;;;;;;;;;;5023539;28;20040;-77
2023/05/05 02:24:07;;;;;;;5.03;4.55;;;;;;;;;;5051464;28;20518;-77
2023/05/05 02:26:35;;;;;;;5.05;4.55;;;;;;;;;;5048006;28;20375;-77
2023/05/05 02:29:03;;;;;;;5.38;4.88;;;;;;;;;;5045593;28;20040;-77
2023/05/05 02:31:30;;;;;;;5.00;4.50;;;;;;;;;;5030894;28;20024;-77
2023/05/05 02:34:03;;;;;;;4.40;4.00;;;;;;;;;;5049952;28;20017;-77
2023/05/05 02:36:32;;;;;;;4.15;3.75;;;;;;;;;;5037965;28;20028;-77
2023/05/05 02:39:00;;;;;;;3.60;3.30;;;;;;;;;;5051462;28;20112;-77
2023/05/05 02:41:28;;;;;;;4.43;3.53;;;;;;;;;;5047332;28;20021;-77
2023/05/05 02:43:55;;;;;;;3.85;3.47;;;;;;;;;;5046307;28;20028;-77
2023/05/05 02:46:21;;;;;;;4.00;3.60;;;;;;;;;;5037368;28;20055;-76
2023/05/05 02:48:47;;;;;;;4.25;3.85;;;;;;;;;;5051551;28;20029;-76
2023/05/05 02:51:13;;;;;;;3.88;3.47;;;;;;;;;;5053237;28;20034;-77
2023/05/05 02:53:39;;;;;;;4.05;3.70;;;;;;;;;;5053383;28;20033;-77
2023/05/05 02:56:18;;;;;;;4.43;4.03;;;;;;;;;;5048002;28;20241;-76
2023/05/05 02:59:02;;;;;;;4.30;3.90;;;;;;;;;;5051738;28;20028;-77
2023/05/05 03:01:55;;;;;;;4.43;4.00;;;;;;;;;;5047887;28;20021;-77
2023/05/05 03:04:35;;;;;;;4.28;3.88;;;;;;;;;;5042238;28;20068;-77
2023/05/05 03:07:06;;;;;;;3.97;3.58;;;;;;;;;;5049924;28;20072;-77
2023/05/05 03:09:32;;;;;;;3.72;3.35;;;;;;;;;;5044665;28;20021;-76
2023/05/05 03:12:03;;;;;;;3.72;3.40;;;;;;;;;;5041208;28;20518;-76
2023/05/05 03:14:33;;;;;;;4.03;3.60;;;;;;;;;;5049607;28;20024;-76
2023/05/05 03:17:00;;;;;;;3.75;3.42;;;;;;;;;;5049258;28;20102;-77
2023/05/05 03:19:27;;;;;;;5.35;3.10;;;;;;;;;;5054077;28;20021;-76
2023/05/05 03:21:53;;;;;;;3.45;3.15;;;;;;;;;;5047940;28;20346;-77
2023/05/05 03:24:20;;;;;;;3.65;3.35;;;;;;;;;;5041424;28;20051;-77
2023/05/05 03:26:47;;;;;;;3.90;3.47;;;;;;;;;;5026420;28;20029;-77
2023/05/05 03:29:14;;;;;;;3.92;3.53;;;;;;;;;;5043183;28;20084;-76
2023/05/05 03:31:40;;;;;;;6.70;5.18;;;;;;;;;;5046835;28;20052;-76
2023/05/05 03:34:07;;;;;;;3.70;3.40;;;;;;;;;;5045984;28;20467;-77
2023/05/05 03:36:34;;;;;;;3.88;3.47;;;;;;;;;;5030642;28;20039;-77
2023/05/05 03:39:00;;;;;;;4.20;3.30;;;;;;;;;;5049195;28;20032;-77
2023/05/05 03:41:29;;;;;;;3.30;3.00;;;;;;;;;;5050244;28;20479;-76
2023/05/05 03:43:55;;;;;;;3.40;3.00;;;;;;;;;;5031884;28;20305;-76
2023/05/05 03:46:21;;;;;;;3.17;2.88;;;;;;;;;;5047032;28;20040;-77
2023/05/05 03:48:47;;;;;;;4.50;3.22;;;;;;;;;;5046815;28;20032;-77
2023/05/05 03:51:16;;;;;;;3.08;2.78;;;;;;;;;;5048303;28;20037;-77
2023/05/05 03:53:42;;;;;;;3.22;2.92;;;;;;;;;;5050824;28;20033;-77
2023/05/05 03:56:09;;;;;;;4.97;4.03;;;;;;;;;;5051150;28;20030;-77
2023/05/05 03:58:35;;;;;;;4.38;3.97;;;;;;;;;;5041999;28;20055;-76
2023/05/05 04:01:01;;;;;;;4.30;3.90;;;;;;;;;;5044524;28;20423;-77
2023/05/05 04:03:27;;;;;;;5.07;3.88;;;;;;;;;;5052329;28;20025;-76
2023/05/05 04:05:53;;;;;;;4.63;3.60;;;;;;;;;;5051422;28;20135;-77
2023/05/05 04:08:19;;;;;;;3.95;3.55;;;;;;;;;;5046905;28;20043;-77
2023/05/05 04:10:45;;;;;;;3.50;3.20;;;;;;;;;;5060335;28;20017;-77
2023/05/05 04:13:11;;;;;;;4.10;3.58;;;;;;;;;;5042207;28;20036;-76
2023/05/05 04:15:37;;;;;;;3.95;3.55;;;;;;;;;;5042147;28;20079;-76
2023/05/05 04:18:03;;;;;;;3.97;3.58;;;;;;;;;;5045262;28;20029;-77
2023/05/05 04:20:33;;;;;;;3.72;3.33;;;;;;;;;;5043130;28;20079;-77
2023/05/05 04:22:59;;;;;;;3.95;3.55;;;;;;;;;;5045390;28;20420;-76
2023/05/05 04:25:25;;;;;;;3.92;3.53;;;;;;;;;;5047149;28;20108;-77
2023/05/05 04:27:55;;;;;;;3.60;3.30;;;;;;;;;;5044193;28;20033;-76
2023/05/05 04:30:24;;;;;;;4.38;3.55;;;;;;;;;;5034534;28;20033;-76
2023/05/05 04:32:51;;;;;;;3.92;3.35;;;;;;;;;;5035868;28;20033;-76
2023/05/05 04:35:17;;;;;;;4.22;3.67;;;;;;;;;;5054750;28;20025;-76
2023/05/05 04:37:43;;;;;;;3.47;3.03;;;;;;;;;;5045370;28;20034;-76
2023/05/05 04:40:15;;;;;;;4.43;3.58;;;;;;;;;;5049848;28;20025;-75
2023/05/05 04:42:41;;;;;;;4.15;3.22;;;;;;;;;;5046683;28;20724;-76
2023/05/05 04:45:08;;;;;;;3.45;2.80;;;;;;;;;;5047881;28;20060;-77
2023/05/05 04:47:38;;;;;;;4.65;2.70;;;;;;;;;;5022457;28;20062;-76
2023/05/05 04:50:06;;;;;;;3.53;2.70;;;;;;;;;;5048935;28;20577;-76
2023/05/05 04:52:32;;;;;;;2.65;2.45;;;;;;;;;;5030845;28;20090;-76
2023/05/05 04:54:58;;;;;;;3.33;2.42;;;;;;;;;;5045720;28;20048;-76
2023/05/05 04:57:25;;;;;;;3.85;2.50;;;;;;;;;;5048831;28;20032;-76
2023/05/05 04:59:51;;;;;;;2.60;2.40;;;;;;;;;;5033942;28;20517;-76
2023/05/05 05:02:17;;;;;;;2.88;2.15;;;;;;;;;;5047194;28;20036;-76
2023/05/05 05:04:43;;;;;;;3.03;1.98;;;;;;;;;;5046440;28;20041;-76
2023/05/05 05:07:09;;;;;;;2.95;2.33;;;;;;;;;;5045235;28;20132;-76
2023/05/05 05:09:35;;;;;;;3.72;2.10;;;;;;;;;;5045622;28;20067;-76
2023/05/05 05:12:01;;;;;;;5.50;2.97;;;;;;;;;;5042151;28;20022;-77
2023/05/05 05:14:28;;;;;;;2.40;1.98;;;;;;;;;;5040880;28;20028;-77
2023/05/05 05:16:54;;;;;;;2.53;2.17;;;;;;;;;;5050238;28;20076;-75
2023/05/05 05:19:21;;;;;;;3.22;2.00;;;;;;;;;;5045815;28;20415;-77
2023/05/05 05:21:50;;;;;;;3.83;2.40;;;;;;;;;;5046886;28;20165;-77
2023/05/05 05:24:16;;;;;;;3.08;2.00;;;;;;;;;;5051764;28;20091;-76
2023/05/05 05:26:42;;;;;;;3.85;2.00;;;;;;;;;;5045359;28;20367;-76
2023/05/05 05:29:08;;;;;;;2.65;1.98;;;;;;;;;;5043101;28;20502;-77
2023/05/05 05:31:35;;;;;;;2.25;2.05;;;;;;;;;;5048696;28;20031;-77
2023/05/05 05:34:01;;;;;;;3.35;1.90;;;;;;;;;;5032760;28;20061;-78
2023/05/05 05:36:32;;;;;;;3.08;2.33;;;;;;;;;;5048114;28;20350;-77
2023/05/05 05:38:58;;;;;;;1.80;1.70;;;;;;;;;;5046291;28;20029;-76
2023/05/05 05:41:24;;;;;;;3.38;2.10;;;;;;;;;;5036929;28;20044;-77
2023/05/05 05:43:50;;;;;;;3.90;2.00;;;;;;;;;;5046395;28;20093;-76
2023/05/05 05:46:17;;;;;;;3.05;2.05;;;;;;;;;;5042891;28;20039;-77
2023/05/05 05:48:43;;;;;;;1.95;1.85;;;;;;;;;;5038454;28;20115;-77
2023/05/05 05:51:09;;;;;;;2.75;1.80;;;;;;;;;;5028664;28;20029;-77
2023/05/05 05:53:35;;;;;;;1.70;1.60;;;;;;;;;;5041031;28;20021;-77
2023/05/05 05:56:01;;;;;;;2.55;1.63;;;;;;;;;;5043669;28;20034;-76
2023/05/05 05:58:27;;;;;;;1.70;1.60;;;;;;;;;;5048258;28;20025;-77
2023/05/05 06:00:53;;;;;;;1.98;1.60;;;;;;;;;;5048388;28;20403;-76
2023/05/05 06:03:19;;;;;;;2.95;2.00;;;;;;;;;;5043502;28;20019;-77
2023/05/05 06:05:46;;;;;;;2.15;1.67;;;;;;;;;;5024501;28;20633;-76
2023/05/05 06:08:13;;;;;;;2.78;1.83;;;;;;;;;;5033579;28;20120;-77
2023/05/05 06:10:40;;;;;;;1.92;1.77;;;;;;;;;;5051215;28;20095;-76
2023/05/05 06:13:06;;;;;;;3.55;2.30;;;;;;;;;;5042923;28;20028;-76
2023/05/05 06:15:32;;;;;;;5.10;2.03;;;;;;;;;;5047258;28;20040;-78
2023/05/05 06:17:58;;;;;;;2.10;1.80;;;;;;;;;;5051338;28;20032;-76
2023/05/05 06:20:25;;;;;;;2.83;1.95;;;;;;;;;;5047295;28;20017;-76
2023/05/05 06:22:51;;;;;;;2.70;1.80;;;;;;;;;;5041431;28;20395;-76
2023/05/05 06:25:17;;;;;;;3.25;1.80;;;;;;;;;;5042133;28;20037;-76
2023/05/05 06:27:43;;;;;;;2.95;1.65;;;;;;;;;;5042541;28;20040;-76
2023/05/05 06:30:09;;;;;;;3.08;1.77;;;;;;;;;;5047276;28;20449;-77
2023/05/05 06:32:35;;;;;;;1.60;1.50;;;;;;;;;;5042950;28;20142;-77
2023/05/05 06:35:02;;;;;;;1.60;1.50;;;;;;;;;;5044452;28;20461;-76
2023/05/05 06:37:28;;;;;;;2.60;1.60;;;;;;;;;;5046172;28;20032;-76
2023/05/05 06:39:55;;;;;;;2.03;1.73;;;;;;;;;;5043915;28;20120;-76
2023/05/05 06:42:21;;;;;;;2.55;1.60;;;;;;;;;;5035433;28;20429;-76
2023/05/05 06:44:47;;;;;;;3.80;1.80;;;;;;;;;;5041958;28;20100;-76
2023/05/05 06:47:14;;;;;;;1.60;1.50;;;;;;;;;;5037073;28;20237;-76
2023/05/05 06:49:40;;;;;;;2.28;1.60;;;;;;;;;;5037600;28;20048;-76
2023/05/05 06:52:07;;;;;;;2.22;1.80;;;;;;;;;;5047463;28;20024;-77
2023/05/05 06:54:33;;;;;;;1.95;1.60;;;;;;;;;;5048512;28;20022;-76
2023/05/05 06:56:59;;;;;;;3.90;1.92;;;;;;;;;;5041190;28;20032;-76
2023/05/05 06:59:25;;;;;;;4.32;2.00;;;;;;;;;;5039786;28;20388;-76
2023/05/05 07:01:51;;;;;;;2.40;1.77;;;;;;;;;;5049109;28;20083;-76
2023/05/05 07:04:18;;;;;;;3.13;1.80;;;;;;;;;;5032681;28;20029;-75
2023/05/05 07:06:44;;;;;;;2.70;2.13;;;;;;;;;;5044578;28;20038;-76
2023/05/05 07:09:11;;;;;;;4.38;1.85;;;;;;;;;;5045144;28;20040;-76
2023/05/05 07:11:37;;;;;;;1.90;1.75;;;;;;;;;;5044235;28;20033;-76
2023/05/05 07:14:03;;;;;;;4.95;2.13;;;;;;;;;;5029927;28;20029;-77
2023/05/05 07:16:35;;;;;;;2.63;2.08;;;;;;;;;;5043011;28;20112;-75
2023/05/05 07:19:04;;;;;;;2.40;2.00;;;;;;;;;;5021225;28;20025;-77
2023/05/05 07:21:31;;;;;;;2.03;1.70;;;;;;;;;;5033340;28;20021;-76
2023/05/05 07:23:57;;;;;;;3.08;2.10;;;;;;;;;;5046574;28;20043;-77
2023/05/05 07:26:23;;;;;;;2.78;2.00;;;;;;;;;;5040419;28;20402;-75
2023/05/05 07:28:50;;;;;;;5.88;2.28;;;;;;;;;;5038999;28;20032;-78
2023/05/05 07:31:18;;;;;;;4.25;2.20;;;;;;;;;;5043528;28;20025;-74
2023/05/05 07:33:44;;;;;;;3.30;2.17;;;;;;;;;;5038621;28;20078;-75
2023/05/05 07:36:10;;;;;;;2.00;1.80;;;;;;;;;;5042473;28;20029;-78
2023/05/05 07:38:37;;;;;;;2.20;1.80;;;;;;;;;;5041567;28;20431;-78
2023/05/05 07:41:03;;;;;;;3.85;2.00;;;;;;;;;;5044498;28;20021;-76
2023/05/05 07:43:29;;;;;;;2.10;1.73;;;;;;;;;;5045633;28;20067;-77
2023/05/05 07:45:55;;;;;;;2.92;2.50;;;;;;;;;;5044583;28;20029;-77
2023/05/05 07:48:21;;;;;;;2.95;1.90;;;;;;;;;;5042346;28;20025;-76
2023/05/05 07:50:47;;;;;;;3.92;2.00;;;;;;;;;;5044948;28;20104;-74
2023/05/05 07:53:13;;;;;;;4.90;1.90;;;;;;;;;;5035322;28;20797;-75
2023/05/05 07:58:43;;;;;;;3.67;2.45;;;;;;;;;;5041236;28;20078;-74
2023/05/05 08:01:10;;;;;;;2.50;2.22;;;;;;;;;;5042425;28;20057;-74
2023/05/05 08:03:36;;;;;;;3.20;2.10;;;;;;;;;;5034836;28;20519;-75
2023/05/05 08:06:11;;;;;;;3.40;2.30;;;;;;;;;;5042009;28;20049;-75
2023/05/05 08:08:37;;;;;;;2.15;1.70;;;;;;;;;;5046747;28;20078;-75
2023/05/05 08:11:05;;;;;;;2.88;1.90;;;;;;;;;;5033133;28;20037;-75
2023/05/05 08:13:31;;;;;;;2.47;2.03;;;;;;;;;;5024427;28;20187;-75
2023/05/05 08:15:57;;;;;;;3.10;2.60;;;;;;;;;;5049948;28;20037;-75
2023/05/05 08:18:23;;;;;;;2.35;2.10;;;;;;;;;;5048112;28;20174;-75
2023/05/05 08:20:58;;;;;;;5.60;2.35;;;;;;;;;;5043081;28;20029;-76
2023/05/05 08:23:24;;;;;;;8.30;2.35;;;;;;;;;;5046731;28;20048;-76
2023/05/05 08:25:51;;;;;;;3.60;2.20;;;;;;;;;;5048455;28;20071;-76
2023/05/05 08:28:17;;;;;;;3.70;2.45;;;;;;;;;;5041428;28;20092;-74
2023/05/05 08:30:43;;;;;;;7.57;3.20;;;;;;;;;;5046122;28;20027;-75
2023/05/05 08:33:09;;;;;;;6.43;2.90;;;;;;;;;;5045721;28;20035;-76
2023/05/05 08:35:35;;;;;;;4.05;2.60;;;;;;;;;;5042037;28;20033;-75
2023/05/05 08:38:01;;;;;;;2.65;2.25;;;;;;;;;;5047680;28;20039;-76
2023/05/05 08:40:35;;;;;;;5.38;2.53;;;;;;;;;;5051279;28;20025;-74
2023/05/05 08:43:01;;;;;;;5.63;2.35;;;;;;;;;;5054180;28;20025;-78
2023/05/05 08:45:30;;;;;;;4.35;2.67;;;;;;;;;;5046704;28;20419;-75
2023/05/05 08:47:57;;;;;;;4.10;2.60;;;;;;;;;;5045255;28;20497;-75
2023/05/05 08:50:27;;;;;;;3.45;2.42;;;;;;;;;;5040428;28;20029;-78
2023/05/05 08:52:58;;;;;;;3.45;2.20;;;;;;;;;;5025483;28;20039;-78
2023/05/05 08:55:25;;;;;;;5.85;3.13;;;;;;;;;;5022227;28;20183;-77
2023/05/05 08:57:55;;;;;;;4.13;2.38;;;;;;;;;;5040501;28;20036;-74
2023/05/05 09:00:22;;;;;;;5.13;2.30;;;;;;;;;;5043731;28;20076;-74
2023/05/05 09:02:48;;;;;;;4.03;2.60;;;;;;;;;;5043384;28;20039;-75
2023/05/05 09:05:15;;;;;;;4.90;2.45;;;;;;;;;;5018129;28;20049;-78
2023/05/05 09:07:42;;;;;;;3.70;2.38;;;;;;;;;;5049175;28;20025;-78
2023/05/05 09:10:10;;;;;;;4.18;2.72;;;;;;;;;;5054739;28;20048;-75
2023/05/05 09:12:40;;;;;;;6.68;3.15;;;;;;;;;;5047710;28;20491;-73
2023/05/05 09:15:10;;;;;;;6.82;2.58;;;;;;;;;;5046321;28;20036;-78
2023/05/05 09:17:37;;;;;;;4.72;2.67;;;;;;;;;;5048990;28;20049;-79
2023/05/05 09:20:07;;;;;;;8.50;3.13;;;;;;;;;;5045526;28;20401;-75
2023/05/05 09:22:37;;;;;;;6.85;2.90;;;;;;;;;;5046839;28;20083;-78
2023/05/05 09:25:08;;;;;;;6.45;2.88;;;;;;;;;;5030133;28;20097;-75
2023/05/05 09:27:38;;;;;;;5.13;2.95;;;;;;;;;;5048111;28;20026;-77
2023/05/05 09:30:08;;;;;;;4.53;3.53;;;;;;;;;;5043620;28;20063;-76
2023/05/05 09:32:48;;;;;;;3.63;2.13;;;;;;;;;;5061002;28;20088;-79
2023/05/05 09:35:14;;;;;;;3.63;2.20;;;;;;;;;;5052026;28;20029;-77
2023/05/05 09:37:41;;;;;;;5.88;3.20;;;;;;;;;;5043542;28;20029;-77
2023/05/05 09:40:08;;;;;;;4.53;2.40;;;;;;;;;;5041819;28;20166;-79
2023/05/05 09:42:37;;;;;;;3.30;2.70;;;;;;;;;;5041941;28;20046;-78
2023/05/05 09:45:24;;;;;;;8.27;2.72;;;;;;;;;;5022465;28;20450;-79
2023/05/05 09:47:50;;;;;;;3.83;2.53;;;;;;;;;;5050301;28;20024;-78
2023/05/05 09:50:17;;;;;;;4.88;2.30;;;;;;;;;;5047353;28;20031;-78
2023/05/05 09:53:03;;;;;;;3.97;2.35;;;;;;;;;;5060924;28;20020;-77
2023/05/05 09:55:34;;;;;;;6.40;2.50;;;;;;;;;;5036575;28;20040;-78
2023/05/05 09:58:17;;;;;;;5.55;2.40;;;;;;;;;;5029345;28;20041;-78
2023/05/05 10:00:43;;;;;;;4.43;2.45;;;;;;;;;;5046862;28;20021;-76
2023/05/05 10:03:09;;;;;;;4.78;2.10;;;;;;;;;;5058308;28;20037;-78
2023/05/05 10:05:51;;;;;;;4.68;2.63;;;;;;;;;;5049694;28;20093;-76
2023/05/05 10:08:20;;;;;;;3.92;2.80;;;;;;;;;;5040219;28;20077;-77
2023/05/05 10:11:03;;;;;;;3.22;2.55;;;;;;;;;;5012905;28;20057;-77
2023/05/05 10:13:30;;;;;;;4.22;2.20;;;;;;;;;;5053613;28;20029;-78
2023/05/05 10:15:57;;;;;;;3.95;2.25;;;;;;;;;;5045613;28;20092;-78
2023/05/05 10:18:27;;;;;;;3.55;2.00;;;;;;;;;;5044628;28;20009;-77
2023/05/05 10:20:58;;;;;;;3.17;2.10;;;;;;;;;;5048394;28;20033;-78
2023/05/05 10:23:28;;;;;;;2.72;2.20;;;;;;;;;;5033928;28;20028;-78
2023/05/05 10:25:58;;;;;;;5.85;2.25;;;;;;;;;;5042964;28;20036;-77
2023/05/05 10:28:36;;;;;;;2.95;1.92;;;;;;;;;;5051436;28;20379;-77
2023/05/05 10:31:03;;;;;;;4.53;2.53;;;;;;;;;;5047129;28;20033;-77
2023/05/05 10:33:34;;;;;;;3.17;2.25;;;;;;;;;;5049516;28;20111;-77
2023/05/05 10:36:07;;;;;;;5.30;2.55;;;;;;;;;;5047417;28;20383;-78
2023/05/05 10:38:33;;;;;;;2.50;1.90;;;;;;;;;;5023400;28;20391;-77
2023/05/05 10:41:03;;;;;;;5.70;2.10;;;;;;;;;;5046239;28;20024;-79
2023/05/05 10:43:30;;;;;;;3.75;1.95;;;;;;;;;;5050321;28;20024;-76
2023/05/05 10:45:56;;;;;;;3.95;2.00;;;;;;;;;;5048256;28;20364;-75
2023/05/05 10:48:45;;;;;;;5.43;2.47;;;;;;;;;;5041783;28;20104;-76
2023/05/05 10:51:18;;;;;;;5.43;2.95;;;;;;;;;;5038402;28;20498;-76
2023/05/05 10:53:55;;;;;;;4.18;2.38;;;;;;;;;;5053860;28;20017;-75
2023/05/05 10:56:25;;;;;;;3.92;2.55;;;;;;;;;;5034815;28;20021;-76
2023/05/05 10:58:52;;;;;;;3.67;2.42;;;;;;;;;;5047969;28;20025;-76
2023/05/05 11:01:35;;;;;;;7.70;2.75;;;;;;;;;;5044336;28;20028;-76
2023/05/05 11:04:17;;;;;;;7.00;2.20;;;;;;;;;;5053797;28;20408;-78
2023/05/05 11:07:02;;;;;;;6.43;2.42;;;;;;;;;;5048818;28;20065;-75
2023/05/05 11:09:28;;;;;;;3.20;1.95;;;;;;;;;;5054334;28;20021;-76
2023/05/05 11:12:01;;;;;;;4.57;2.78;;;;;;;;;;5053542;28;20030;-75
2023/05/05 11:14:27;;;;;;;6.68;2.42;;;;;;;;;;5056250;28;20029;-76
2023/05/05 11:16:54;;;;;;;2.38;2.08;;;;;;;;;;5035475;28;20383;-77
2023/05/05 11:19:56;;;;;;;3.28;2.10;;;;;;;;;;5029440;28;20029;-76
2023/05/05 11:22:22;;;;;;;3.72;2.50;;;;;;;;;;4951194;29;20044;-76
2023/05/05 11:24:48;;;;;;;5.38;2.30;;;;;;;;;;5028821;28;20052;-76
2023/05/05 11:27:15;;;;;;;4.45;2.28;;;;;;;;;;5026171;28;20044;-76
2023/05/05 11:30:00;;;;;;;5.47;2.38;;;;;;;;;;5054589;28;20021;-76
2023/05/05 11:32:26;;;;;;;3.55;2.00;;;;;;;;;;5049565;28;20036;-74
2023/05/05 11:34:53;;;;;;;6.63;2.92;;;;;;;;;;5032231;28;20258;-76
2023/05/05 11:37:22;;;;;;;5.72;2.47;;;;;;;;;;5051547;28;20047;-76
2023/05/05 11:40:08;;;;;;;5.25;2.70;;;;;;;;;;5050829;28;20100;-76
2023/05/05 11:42:34;;;;;;;5.43;2.28;;;;;;;;;;5033407;28;20034;-78
2023/05/05 11:45:00;;;;;;;2.53;2.05;;;;;;;;;;5049456;28;20108;-75
2023/05/05 11:47:28;;;;;;;5.10;2.20;;;;;;;;;;5041671;28;20420;-76
2023/05/05 11:49:54;;;;;;;2.85;2.05;;;;;;;;;;5045385;28;20036;-74
2023/05/05 11:52:23;;;;;;;3.95;1.90;;;;;;;;;;5047110;28;20017;-77
2023/05/05 11:54:49;;;;;;;3.38;1.98;;;;;;;;;;5042566;28;20025;-77
2023/05/05 11:57:20;;;;;;;5.10;1.90;;;;;;;;;;5030519;28;20529;-78
2023/05/05 11:59:53;;;;;;;6.70;2.67;;;;;;;;;;5044986;28;20029;-78
2023/05/05 12:02:20;;;;;;;4.15;2.50;;;;;;;;;;5027229;28;20061;-78
2023/05/05 12:04:46;;;;;;;5.13;2.17;;;;;;;;;;5044571;28;20045;-78
2023/05/05 12:07:16;;;;;;;4.38;2.00;;;;;;;;;;5038022;28;20021;-77
2023/05/05 12:09:44;;;;;;;5.30;2.53;;;;;;;;;;5046102;28;20540;-77
2023/05/05 12:12:10;;;;;;;3.13;2.28;;;;;;;;;;5050213;28;20319;-78
2023/05/05 12:14:50;;;;;;;5.15;2.50;;;;;;;;;;5041633;28;21463;-77
2023/05/05 12:17:20;;;;;;;4.53;2.50;;;;;;;;;;5047395;28;20033;-77
2023/05/05 12:19:47;;;;;;;5.88;2.42;;;;;;;;;;5041252;28;20118;-77
2023/05/05 12:22:18;;;;;;;3.65;2.25;;;;;;;;;;5046167;28;20017;-76
2023/05/05 12:24:44;;;;;;;4.95;2.20;;;;;;;;;;5033591;28;20685;-74
2023/05/05 12:27:11;;;;;;;5.25;2.60;;;;;;;;;;5052444;28;20068;-78
2023/05/05 12:29:37;;;;;;;6.30;2.40;;;;;;;;;;5046744;28;20371;-78
2023/05/05 12:32:07;;;;;;;3.78;2.30;;;;;;;;;;5025380;28;20075;-77
2023/05/05 12:34:33;;;;;;;4.22;2.50;;;;;;;;;;5037897;28;20036;-77
2023/05/05 12:36:59;;;;;;;5.35;2.40;;;;;;;;;;5052684;28;20073;-78
2023/05/05 12:39:35;;;;;;;3.47;1.90;;;;;;;;;;5047684;28;20022;-80
2023/05/05 12:42:08;;;;;;;5.07;2.10;;;;;;;;;;5041386;28;20056;-79
2023/05/05 12:44:35;;;;;;;3.85;2.80;;;;;;;;;;5030499;28;20025;-79
2023/05/05 12:47:01;;;;;;;2.88;1.92;;;;;;;;;;5047586;28;20037;-81
2023/05/05 12:49:27;;;;;;;5.97;2.15;;;;;;;;;;5021435;28;20035;-83
2023/05/05 12:51:54;;;;;;;4.13;2.40;;;;;;;;;;5041043;28;20037;-78
2023/05/05 12:54:22;;;;;;;3.90;1.88;;;;;;;;;;5037282;28;20027;-79
2023/05/05 12:56:48;;;;;;;3.58;2.00;;;;;;;;;;5049259;28;20159;-79
2023/05/05 12:59:20;;;;;;;2.30;1.80;;;;;;;;;;5045358;28;20029;-79
2023/05/05 13:01:54;;;;;;;1.95;1.67;;;;;;;;;;5050674;28;20104;-79
2023/05/05 13:04:21;;;;;;;4.38;1.98;;;;;;;;;;5040848;28;20028;-78
2023/05/05 13:06:48;;;;;;;3.55;2.08;;;;;;;;;;5040105;28;20026;-78
2023/05/05 13:09:24;;;;;;;3.22;2.53;;;;;;;;;;5051988;28;20017;-78
2023/05/05 13:11:50;;;;;;;3.15;2.15;;;;;;;;;;5018352;28;20021;-77
2023/05/05 13:14:16;;;;;;;3.70;2.53;;;;;;;;;;5024616;28;20543;-78
2023/05/05 13:16:42;;;;;;;4.07;2.05;;;;;;;;;;5030541;28;20095;-76
2023/05/05 13:19:08;;;;;;;4.95;1.98;;;;;;;;;;5032998;28;20025;-79
2023/05/05 13:21:34;;;;;;;2.65;2.00;;;;;;;;;;5036976;28;20032;-77
2023/05/05 13:24:00;;;;;;;2.17;1.98;;;;;;;;;;5043911;28;20099;-76
2023/05/05 13:26:27;;;;;;;4.32;2.13;;;;;;;;;;5039232;28;20788;-80
2023/05/05 13:28:54;;;;;;;2.90;2.00;;;;;;;;;;5038552;28;20038;-80
2023/05/05 13:31:21;;;;;;;2.58;1.85;;;;;;;;;;5027984;28;20122;-80
2023/05/05 13:33:47;;;;;;;2.17;1.80;;;;;;;;;;5048428;28;20052;-79
2023/05/05 13:36:13;;;;;;;3.45;1.80;;;;;;;;;;5042289;28;20372;-79
2023/05/05 13:38:39;;;;;;;1.77;1.60;;;;;;;;;;5041572;28;20028;-79
2023/05/05 13:41:05;;;;;;;2.47;2.10;;;;;;;;;;5028388;28;20025;-79
2023/05/05 13:43:32;;;;;;;3.92;1.90;;;;;;;;;;5038194;28;20107;-78
2023/05/05 13:45:58;;;;;;;2.95;2.20;;;;;;;;;;5044842;28;20480;-78
2023/05/05 13:48:24;;;;;;;2.35;1.92;;;;;;;;;;5046215;28;20475;-78
2023/05/05 13:50:50;;;;;;;4.68;2.10;;;;;;;;;;5036509;28;20029;-78
2023/05/05 13:53:16;;;;;;;2.78;1.80;;;;;;;;;;5045474;28;20062;-78
2023/05/05 13:55:45;;;;;;;3.67;2.08;;;;;;;;;;5042110;28;20055;-78
2023/05/05 13:58:13;;;;;;;2.75;1.90;;;;;;;;;;5040367;28;20315;-78
2023/05/05 14:00:41;;;;;;;5.85;3.08;;;;;;;;;;5049630;28;20017;-76
2023/05/05 14:03:07;;;;;;;6.25;2.50;;;;;;;;;;5026380;28;20067;-76
2023/05/05 14:05:34;;;;;;;5.72;2.30;;;;;;;;;;5045724;28;20514;-77
2023/05/05 14:08:00;;;;;;;3.53;1.90;;;;;;;;;;5041047;28;20045;-76
2023/05/05 14:10:28;;;;;;;6.47;2.17;;;;;;;;;;5040123;28;20482;-79
2023/05/05 14:12:55;;;;;;;4.25;2.00;;;;;;;;;;5047834;28;20484;-77
2023/05/05 14:15:21;;;;;;;2.75;1.88;;;;;;;;;;5045879;28;20036;-77
2023/05/05 14:17:48;;;;;;;4.57;2.10;;;;;;;;;;5042186;28;20136;-79
2023/05/05 14:20:15;;;;;;;4.25;2.40;;;;;;;;;;5030575;28;20056;-79
2023/05/05 14:22:41;;;;;;;3.92;1.90;;;;;;;;;;5048283;28;20018;-77
2023/05/05 14:25:07;;;;;;;3.08;1.92;;;;;;;;;;5049205;28;20666;-78
2023/05/05 14:27:33;;;;;;;3.47;2.13;;;;;;;;;;5045192;28;20064;-77
2023/05/05 14:29:59;;;;;;;5.60;2.28;;;;;;;;;;5047499;28;20039;-77
2023/05/05 14:32:25;;;;;;;3.80;1.80;;;;;;;;;;5046223;28;20021;-76
2023/05/05 14:34:51;;;;;;;2.35;2.05;;;;;;;;;;5044236;28;20031;-77
2023/05/05 14:37:18;;;;;;;4.32;2.47;;;;;;;;;;5042471;28;20447;-79
2023/05/05 14:39:44;;;;;;;4.35;2.08;;;;;;;;;;5046292;28;20029;-77
2023/05/05 14:42:10;;;;;;;4.95;2.15;;;;;;;;;;5053048;28;20025;-79
2023/05/05 14:44:36;;;;;;;6.57;2.33;;;;;;;;;;5046276;28;20049;-79
2023/05/05 14:47:02;;;;;;;4.70;2.10;;;;;;;;;;5049933;28;20021;-78
2023/05/05 14:49:28;;;;;;;4.05;2.00;;;;;;;;;;5029792;28;20025;-79
2023/05/05 14:51:55;;;;;;;5.00;2.20;;;;;;;;;;5050076;28;20036;-79
2023/05/05 14:54:21;;;;;;;4.95;2.50;;;;;;;;;;5050143;28;20052;-78